createdAt,value
2023-04-07T00:02:16.760Z,2.23
2023-04-07T00:05:20.103Z,2.21
2023-04-07T00:08:22.965Z,2.21
2023-04-07T00:11:26.488Z,2.16
2023-04-07T00:14:30.179Z,2.21
2023-04-07T00:17:33.399Z,2.24
2023-04-07T00:20:36.838Z,2.14
2023-04-07T00:23:39.774Z,1.95
2023-04-07T00:26:42.739Z,2.17
2023-04-07T00:29:46.965Z,2.13
2023-04-07T00:32:51.567Z,2.04
2023-04-07T00:35:54.873Z,2.06
2023-04-07T00:38:57.886Z,1.95
2023-04-07T00:42:01.569Z,1.94
2023-04-07T00:45:04.932Z,1.99
2023-04-07T00:48:08.291Z,2.05
2023-04-07T00:51:11.577Z,1.96
2023-04-07T00:54:15.534Z,2.03
2023-04-07T00:57:18.497Z,1.96
2023-04-07T01:00:23.317Z,1.81
2023-04-07T01:03:34.234Z,1.89
2023-04-07T01:06:40.775Z,2.12
2023-04-07T01:09:51.809Z,1.96
2023-04-07T01:13:08.738Z,2.21
2023-04-07T01:16:14.129Z,1.95
2023-04-07T01:19:30.761Z,2.05
2023-04-07T01:22:43.371Z,2.06
2023-04-07T01:26:10.053Z,2.04
2023-04-07T01:29:25.394Z,2.16
2023-04-07T01:32:30.223Z,1.96
2023-04-07T01:35:35.475Z,2.02
2023-04-07T01:38:39.164Z,2.18
2023-04-07T01:41:42.391Z,2.24
2023-04-07T01:44:46.992Z,2.18
2023-04-07T01:47:50.491Z,2.27
2023-04-07T01:50:55.420Z,2.38
2023-04-07T01:54:00.980Z,2.40
2023-04-07T01:57:04.358Z,2.40
2023-04-07T02:00:08.777Z,2.45
2023-04-07T02:03:24.669Z,2.47
2023-04-07T02:06:33.843Z,2.40
2023-04-07T02:09:39.275Z,2.29
2023-04-07T02:12:42.501Z,2.39
2023-04-07T02:15:46.022Z,2.43
2023-04-07T02:18:49.608Z,2.46
2023-04-07T02:21:53.099Z,2.45
2023-04-07T02:24:57.617Z,2.48
2023-04-07T02:28:03.301Z,2.53
2023-04-07T02:31:06.254Z,2.50
2023-04-07T02:34:10.180Z,2.56
2023-04-07T02:37:15.516Z,2.57
2023-04-07T02:40:18.779Z,2.46
2023-04-07T02:43:21.792Z,2.43
2023-04-07T02:46:27.393Z,2.61
2023-04-07T02:49:30.329Z,2.46
2023-04-07T02:52:33.592Z,2.47
2023-04-07T02:55:37.611Z,2.34
2023-04-07T02:58:41.109Z,2.56
2023-04-07T03:01:44.331Z,2.55
2023-04-07T03:04:48.356Z,2.43
2023-04-07T03:07:52.180Z,2.44
2023-04-07T03:10:55.579Z,2.35
2023-04-07T03:14:00.035Z,2.45
2023-04-07T03:17:04.645Z,2.38
2023-04-07T03:20:08.605Z,2.24
2023-04-07T03:23:13.800Z,2.25
2023-04-07T03:26:18.739Z,2.36
2023-04-07T03:29:22.094Z,2.38
2023-04-07T03:32:27.565Z,2.43
2023-04-07T03:35:32.410Z,2.44
2023-04-07T03:38:35.677Z,2.34
2023-04-07T03:41:39.155Z,2.50
2023-04-07T03:44:42.737Z,2.49
2023-04-07T03:47:46.504Z,2.48
2023-04-07T03:50:49.653Z,2.59
2023-04-07T03:53:53.533Z,2.46
2023-04-07T03:57:00.004Z,2.70
2023-04-07T04:00:04.022Z,2.60
2023-04-07T04:03:19.196Z,2.40
2023-04-07T04:06:23.485Z,2.58
2023-04-07T04:09:26.998Z,2.58
2023-04-07T04:12:30.341Z,2.39
2023-04-07T04:15:34.644Z,2.47
2023-04-07T04:18:39.205Z,2.49
2023-04-07T04:21:42.455Z,2.47
2023-04-07T04:24:46.278Z,2.37
2023-04-07T04:27:49.696Z,2.32
2023-04-07T04:30:53.219Z,2.31
2023-04-07T04:33:56.357Z,2.36
2023-04-07T04:37:00.175Z,2.35
2023-04-07T04:40:04.277Z,2.45
2023-04-07T04:43:09.740Z,2.48
2023-04-07T04:46:14.334Z,2.54
2023-04-07T04:49:19.906Z,2.43
2023-04-07T04:52:23.143Z,2.49
2023-04-07T04:55:27.513Z,2.47
2023-04-07T04:58:32.491Z,2.45
2023-04-07T05:01:35.758Z,2.39
2023-04-07T05:04:39.061Z,2.39
2023-04-07T05:07:43.318Z,2.55
2023-04-07T05:10:47.777Z,2.41
2023-04-07T05:13:52.602Z,2.62
2023-04-07T05:16:55.757Z,2.62
2023-04-07T05:19:59.340Z,2.66
2023-04-07T05:23:03.235Z,2.75
2023-04-07T05:26:07.105Z,2.72
2023-04-07T05:29:12.457Z,2.67
2023-04-07T05:32:15.768Z,2.66
2023-04-07T05:35:19.015Z,2.66
2023-04-07T05:38:24.596Z,2.77
2023-04-07T05:41:29.891Z,2.82
2023-04-07T05:44:33.514Z,2.79
2023-04-07T05:47:36.691Z,2.57
2023-04-07T05:50:41.763Z,2.78
2023-04-07T05:53:44.846Z,2.71
2023-04-07T05:56:49.000Z,2.78
2023-04-07T05:59:52.530Z,2.77
2023-04-07T06:02:56.347Z,2.80
2023-04-07T06:06:00.919Z,2.70
2023-04-07T06:09:04.595Z,2.87
2023-04-07T06:12:09.437Z,2.96
2023-04-07T06:15:12.629Z,2.88
2023-04-07T06:18:15.986Z,3.11
2023-04-07T06:21:18.927Z,2.72
2023-04-07T06:24:25.461Z,3.21
2023-04-07T06:27:28.491Z,3.08
2023-04-07T06:30:32.178Z,3.08
2023-04-07T06:33:35.511Z,3.26
2023-04-07T06:36:38.769Z,3.36
2023-04-07T06:39:41.788Z,2.97
2023-04-07T06:42:46.274Z,3.23
2023-04-07T06:45:52.447Z,3.01
2023-04-07T06:48:55.684Z,3.09
2023-04-07T06:51:59.462Z,3.10
2023-04-07T06:55:02.813Z,3.18
2023-04-07T06:58:05.940Z,3.37
2023-04-07T07:01:09.443Z,3.37
2023-04-07T07:04:12.536Z,3.49
2023-04-07T07:07:16.111Z,3.28
2023-04-07T07:10:20.726Z,3.46
2023-04-07T07:13:26.645Z,3.65
2023-04-07T07:16:29.490Z,3.47
2023-04-07T07:19:32.693Z,3.56
2023-04-07T07:22:35.984Z,3.45
2023-04-07T07:25:39.356Z,3.75
2023-04-07T07:28:42.314Z,3.48
2023-04-07T07:31:45.986Z,3.66
2023-04-07T07:34:48.851Z,3.39
2023-04-07T07:37:53.020Z,3.69
2023-04-07T07:40:56.092Z,3.89
2023-04-07T07:43:59.302Z,4.13
2023-04-07T07:47:02.263Z,4.34
2023-04-07T07:50:05.954Z,4.17
2023-04-07T07:53:08.912Z,3.80
2023-04-07T07:56:12.124Z,3.95
2023-04-07T07:59:16.638Z,3.84
2023-04-07T08:02:20.975Z,4.09
2023-04-07T08:05:24.391Z,4.00
2023-04-07T08:08:27.268Z,3.98
2023-04-07T08:11:30.423Z,4.01
2023-04-07T08:14:33.924Z,3.74
2023-04-07T08:17:37.182Z,3.93
2023-04-07T08:20:40.924Z,4.00
2023-04-07T08:23:44.176Z,3.84
2023-04-07T08:26:47.276Z,3.89
2023-04-07T08:30:00.609Z,3.80
2023-04-07T08:33:04.335Z,3.76
2023-04-07T08:36:07.912Z,4.05
2023-04-07T08:39:10.966Z,3.82
2023-04-07T08:42:14.444Z,4.22
2023-04-07T08:45:19.424Z,4.22
2023-04-07T08:48:27.272Z,4.02
2023-04-07T08:51:33.307Z,4.01
2023-04-07T08:54:36.903Z,4.41
2023-04-07T08:57:40.258Z,4.30
2023-04-07T09:00:49.801Z,4.11
2023-04-07T09:03:52.997Z,4.49
2023-04-07T09:06:57.412Z,4.68
2023-04-07T09:10:01.738Z,4.23
2023-04-07T09:13:04.986Z,4.84
2023-04-07T09:16:08.157Z,4.55
2023-04-07T09:19:11.517Z,4.66
2023-04-07T09:22:14.951Z,4.71
2023-04-07T09:25:20.037Z,4.80
2023-04-07T09:28:23.120Z,5.34
2023-04-07T09:31:50.350Z,5.11
2023-04-07T09:34:59.306Z,4.74
2023-04-07T09:38:07.732Z,5.27
2023-04-07T09:41:11.683Z,4.94
2023-04-07T09:44:15.058Z,4.33
2023-04-07T09:47:18.153Z,4.59
2023-04-07T09:50:35.441Z,4.85
2023-04-07T09:53:50.103Z,5.17
2023-04-07T09:56:53.762Z,5.13
2023-04-07T09:59:57.306Z,5.30
2023-04-07T10:03:00.942Z,5.19
2023-04-07T10:06:06.501Z,5.35
2023-04-07T10:09:10.654Z,6.04
2023-04-07T10:12:14.673Z,6.35
2023-04-07T10:15:17.727Z,5.27
2023-04-07T10:18:21.637Z,5.15
2023-04-07T10:21:26.037Z,5.92
2023-04-07T10:24:47.548Z,5.96
2023-04-07T10:27:54.002Z,5.64
2023-04-07T10:30:58.305Z,5.45
2023-04-07T10:34:02.855Z,5.55
2023-04-07T10:37:13.829Z,5.41
2023-04-07T10:40:19.577Z,6.07
2023-04-07T10:43:44.332Z,5.66
2023-04-07T10:46:48.838Z,5.68
2023-04-07T10:50:20.612Z,6.66
2023-04-07T10:53:24.348Z,6.66
2023-04-07T10:56:28.144Z,7.46
2023-04-07T10:59:32.295Z,7.00
2023-04-07T11:02:36.044Z,6.92
2023-04-07T11:05:42.514Z,6.65
2023-04-07T11:08:49.322Z,6.38
2023-04-07T11:11:53.616Z,5.91
2023-04-07T11:14:57.483Z,5.76
2023-04-07T11:18:23.478Z,6.28
2023-04-07T11:21:26.628Z,6.04
2023-04-07T11:24:39.446Z,6.01
2023-04-07T11:27:44.883Z,6.27
2023-04-07T11:30:54.143Z,6.12
2023-04-07T11:34:00.032Z,6.16
2023-04-07T11:37:26.304Z,5.39
2023-04-07T11:40:37.157Z,6.26
2023-04-07T11:43:45.406Z,6.30
2023-04-07T11:46:59.986Z,6.42
2023-04-07T11:50:03.052Z,6.83
2023-04-07T11:53:06.280Z,6.96
2023-04-07T11:56:16.576Z,7.14
2023-04-07T11:59:25.022Z,6.72
2023-04-07T12:02:34.604Z,6.58
2023-04-07T12:05:45.183Z,6.30
2023-04-07T12:08:48.204Z,5.77
2023-04-07T12:11:51.573Z,6.12
2023-04-07T12:14:54.987Z,6.09
2023-04-07T12:17:58.180Z,6.00
2023-04-07T12:21:01.642Z,6.04
2023-04-07T12:24:04.929Z,6.37
2023-04-07T12:27:07.949Z,5.46
2023-04-07T12:30:13.225Z,5.91
2023-04-07T12:33:16.991Z,6.25
2023-04-07T12:36:20.257Z,6.48
2023-04-07T12:39:23.626Z,6.35
2023-04-07T12:42:27.348Z,6.26
2023-04-07T12:45:31.372Z,6.07
2023-04-07T12:48:34.824Z,6.02
2023-04-07T12:51:40.115Z,6.06
2023-04-07T12:54:45.093Z,6.19
2023-04-07T12:57:48.475Z,6.12
2023-04-07T13:00:52.383Z,6.00
2023-04-07T13:03:56.271Z,6.15
2023-04-07T13:07:01.075Z,6.49
2023-04-07T13:10:06.242Z,6.69
2023-04-07T13:13:09.376Z,6.71
2023-04-07T13:16:12.433Z,6.66
2023-04-07T13:19:16.205Z,6.63
2023-04-07T13:22:22.140Z,6.57
2023-04-07T13:25:27.543Z,6.50
2023-04-07T13:28:30.554Z,6.42
2023-04-07T13:31:33.769Z,6.87
2023-04-07T13:34:38.276Z,6.73
2023-04-07T13:37:41.499Z,6.78
2023-04-07T13:40:45.374Z,6.63
2023-04-07T13:43:49.145Z,6.64
2023-04-07T13:46:52.779Z,6.45
2023-04-07T13:49:56.178Z,6.25
2023-04-07T13:52:59.069Z,6.33
2023-04-07T13:56:03.684Z,6.19
2023-04-07T13:59:07.818Z,5.96
2023-04-07T14:02:11.533Z,5.84
2023-04-07T14:05:14.731Z,6.31
2023-04-07T14:08:19.163Z,6.35
2023-04-07T14:11:22.800Z,6.33
2023-04-07T14:14:25.743Z,6.54
2023-04-07T14:17:29.047Z,6.42
2023-04-07T14:20:32.107Z,6.54
2023-04-07T14:23:37.633Z,6.72
2023-04-07T14:26:40.797Z,6.68
2023-04-07T14:29:44.003Z,6.67
2023-04-07T14:32:47.078Z,6.63
2023-04-07T14:35:50.345Z,6.31
2023-04-07T14:38:54.342Z,6.34
2023-04-07T14:41:57.606Z,6.26
2023-04-07T14:45:00.645Z,5.83
2023-04-07T14:48:04.010Z,5.99
2023-04-07T14:51:12.983Z,6.11
2023-04-07T14:54:16.172Z,6.10
2023-04-07T14:57:19.786Z,6.07
2023-04-07T15:00:25.434Z,6.05
2023-04-07T15:03:29.120Z,5.89
2023-04-07T15:06:34.064Z,6.13
2023-04-07T15:09:36.904Z,6.20
2023-04-07T15:12:40.981Z,6.14
2023-04-07T15:15:43.860Z,6.05
2023-04-07T15:18:48.388Z,6.06
2023-04-07T15:21:51.284Z,6.09
2023-04-07T15:24:54.429Z,6.02
2023-04-07T15:27:57.395Z,5.91
2023-04-07T15:31:01.399Z,5.75
2023-04-07T15:34:04.542Z,6.03
2023-04-07T15:37:08.597Z,5.93
2023-04-07T15:40:11.897Z,6.04
2023-04-07T15:43:15.079Z,5.95
2023-04-07T15:46:17.943Z,5.96
2023-04-07T15:49:24.311Z,5.97
2023-04-07T15:52:29.247Z,5.88
2023-04-07T15:55:34.939Z,5.83
2023-04-07T15:58:38.997Z,5.95
2023-04-07T16:01:42.458Z,5.87
2023-04-07T16:04:47.615Z,5.88
2023-04-07T16:07:51.542Z,5.85
2023-04-07T16:10:54.671Z,5.90
2023-04-07T16:13:57.610Z,5.97
2023-04-07T16:17:00.980Z,6.06
2023-04-07T16:20:04.737Z,6.04
2023-04-07T16:23:08.082Z,6.03
2023-04-07T16:26:11.187Z,6.07
2023-04-07T16:29:14.384Z,6.04
2023-04-07T16:32:17.277Z,5.86
2023-04-07T16:35:20.654Z,5.87
2023-04-07T16:38:24.242Z,5.83
2023-04-07T16:41:27.603Z,5.76
2023-04-07T16:44:32.724Z,5.72
2023-04-07T16:47:36.908Z,5.59
2023-04-07T16:50:44.206Z,5.60
2023-04-07T16:53:48.155Z,5.44
2023-04-07T16:56:51.992Z,5.25
2023-04-07T16:59:55.339Z,5.34
2023-04-07T17:02:58.377Z,5.28
2023-04-07T17:06:05.644Z,5.24
2023-04-07T17:09:08.594Z,5.12
2023-04-07T17:12:13.079Z,5.00
2023-04-07T17:15:16.204Z,4.99
2023-04-07T17:18:20.846Z,4.98
2023-04-07T17:21:23.713Z,5.12
2023-04-07T17:24:26.881Z,5.10
2023-04-07T17:27:29.866Z,5.08
2023-04-07T17:30:33.238Z,5.07
2023-04-07T17:33:36.239Z,5.14
2023-04-07T17:36:39.450Z,5.12
2023-04-07T17:39:42.535Z,5.09
2023-04-07T17:42:45.985Z,5.15
2023-04-07T17:45:48.915Z,5.16
2023-04-07T17:48:52.401Z,5.17
2023-04-07T17:51:56.654Z,5.18
2023-04-07T17:55:01.173Z,5.09
2023-04-07T17:58:04.049Z,5.10
2023-04-07T18:01:12.572Z,5.02
2023-04-07T18:04:17.915Z,4.89
2023-04-07T18:07:21.379Z,4.86
2023-04-07T18:10:26.111Z,4.89
2023-04-07T18:13:30.480Z,4.77
2023-04-07T18:16:34.279Z,4.83
2023-04-07T18:19:37.584Z,4.75
2023-04-07T18:22:41.047Z,4.71
2023-04-07T18:25:44.061Z,4.60
2023-04-07T18:28:47.369Z,4.67
2023-04-07T18:31:50.608Z,4.71
2023-04-07T18:34:54.961Z,4.72
2023-04-07T18:37:59.216Z,4.77
2023-04-07T18:41:02.618Z,4.64
2023-04-07T18:44:05.652Z,4.67
2023-04-07T18:47:08.891Z,4.72
2023-04-07T18:50:12.191Z,4.69
2023-04-07T18:53:17.100Z,4.46
2023-04-07T18:56:22.742Z,4.54
2023-04-07T18:59:29.239Z,4.53
2023-04-07T19:02:32.229Z,4.59
2023-04-07T19:05:37.545Z,4.58
2023-04-07T19:08:41.141Z,4.64
2023-04-07T19:11:44.964Z,4.63
2023-04-07T19:14:48.045Z,4.64
2023-04-07T19:17:52.861Z,4.63
2023-04-07T19:20:56.143Z,4.65
2023-04-07T19:23:59.940Z,4.64
2023-04-07T19:27:03.393Z,4.67
2023-04-07T19:30:07.563Z,4.65
2023-04-07T19:33:11.925Z,4.66
2023-04-07T19:36:15.517Z,4.63
2023-04-07T19:39:18.696Z,4.66
2023-04-07T19:42:22.051Z,4.65
2023-04-07T19:45:25.734Z,4.58
2023-04-07T19:48:29.836Z,4.62
2023-04-07T19:51:33.251Z,4.64
2023-04-07T19:54:37.009Z,4.56
2023-04-07T19:57:43.284Z,4.60
2023-04-07T20:00:49.819Z,4.58
2023-04-07T20:03:53.181Z,4.64
2023-04-07T20:06:56.239Z,4.65
2023-04-07T20:10:00.155Z,4.53
2023-04-07T20:13:04.565Z,4.55
2023-04-07T20:16:09.196Z,4.63
2023-04-07T20:19:12.291Z,4.51
2023-04-07T20:22:15.848Z,4.55
2023-04-07T20:25:18.939Z,4.56
2023-04-07T20:28:22.446Z,4.55
2023-04-07T20:31:25.643Z,4.52
2023-04-07T20:34:29.276Z,4.55
2023-04-07T20:37:32.223Z,4.53
2023-04-07T20:40:37.053Z,4.57
2023-04-07T20:43:40.172Z,4.61
2023-04-07T20:46:44.403Z,4.59
2023-04-07T20:49:47.384Z,4.64
2023-04-07T20:52:50.636Z,4.61
2023-04-07T20:55:53.674Z,4.60
2023-04-07T20:58:56.847Z,4.46
2023-04-07T21:01:59.975Z,4.55
2023-04-07T21:05:04.216Z,4.43
2023-04-07T21:08:08.578Z,4.55
2023-04-07T21:11:11.756Z,4.60
2023-04-07T21:14:14.710Z,4.53
2023-04-07T21:17:18.023Z,4.53
2023-04-07T21:20:20.876Z,4.41
2023-04-07T21:23:24.087Z,4.44
2023-04-07T21:26:27.389Z,4.51
2023-04-07T21:29:33.263Z,4.57
2023-04-07T21:32:36.773Z,4.52
2023-04-07T21:35:40.572Z,4.39
2023-04-07T21:38:43.661Z,4.34
2023-04-07T21:41:46.736Z,4.35
2023-04-07T21:44:50.067Z,4.22
2023-04-07T21:47:53.320Z,4.35
2023-04-07T21:50:56.700Z,4.25
2023-04-07T21:53:59.885Z,4.23
2023-04-07T21:57:02.839Z,4.22
2023-04-07T22:00:07.472Z,4.19
2023-04-07T22:03:17.548Z,4.18
2023-04-07T22:06:20.943Z,4.05
2023-04-07T22:09:24.334Z,3.97
2023-04-07T22:12:27.792Z,4.10
2023-04-07T22:15:30.869Z,4.12
2023-04-07T22:18:34.039Z,4.07
2023-04-07T22:21:36.933Z,4.10
2023-04-07T22:24:40.379Z,4.12
2023-04-07T22:27:43.331Z,4.15
2023-04-07T22:30:46.563Z,4.15
2023-04-07T22:33:49.796Z,4.18
2023-04-07T22:36:54.368Z,4.19
2023-04-07T22:39:57.235Z,4.19
2023-04-07T22:43:02.280Z,4.16
2023-04-07T22:46:05.280Z,4.18
2023-04-07T22:49:08.566Z,4.20
2023-04-07T22:52:11.479Z,4.09
2023-04-07T22:55:14.737Z,4.09
2023-04-07T22:58:17.747Z,4.06
2023-04-07T23:01:21.137Z,4.00
2023-04-07T23:04:24.894Z,3.88
2023-04-07T23:07:28.066Z,3.92
2023-04-07T23:10:32.221Z,3.82
2023-04-07T23:13:35.404Z,3.84
2023-04-07T23:16:38.369Z,3.84
2023-04-07T23:19:42.748Z,3.86
2023-04-07T23:22:45.824Z,3.83
2023-04-07T23:25:49.738Z,3.87
2023-04-07T23:28:52.693Z,3.86
2023-04-07T23:31:56.036Z,3.84
2023-04-07T23:34:59.005Z,3.80
2023-04-07T23:38:02.521Z,3.78
2023-04-07T23:41:05.439Z,3.74
2023-04-07T23:44:08.911Z,3.68
2023-04-07T23:47:11.796Z,3.60
2023-04-07T23:50:15.032Z,3.55
2023-04-07T23:53:18.352Z,3.44
2023-04-07T23:56:21.720Z,3.48
2023-04-07T23:59:25.070Z,3.32
